Tiempo atmosférico en la estación meteorológica de San Andrés y Sauces, Santa Cruz de Tenerife (362 m.)



Fecha
DESCASC
Temp. máxima en grados centígrados (hora)
DESCASC
Temp. mínima en grados centígrados (hora)
DESCASC
Temp. media en grados centígrados
DESCASC
Racha de viento máxima en m/sg (hora)
DESCASC
Velocidad máxima media en intervalos de 10 minutos(hora)
DESCASC
Precipitaciones diarias en mm
DESCASC
Precipitaciones de 00:00 a 06:00 en mm
DESCASC
Precipitaciones de 06:00 a 12:00 en mm
DESCASC
Precipitaciones de 12:00 a 18:00 en mm
DESCASC
Precipitaciones de 18:00 a 24:00 en mm
DESCASC
13-10-2019 25.6 (14:30) 16.5 (06:00) 21.1 10.83 (16:30) 5.83 (16:20) 70.2 0 0 32.2 38
12-10-2019 23.8 (11:00) 17.3 (22:40) 20.5 6.94 (16:30) 4.44 (16:30) 0 0 0 0 0
10-10-2019 21.2 (12:20) 18.8 (00:00) 20 9.17 (02:50) 5.56 (14:30) 0 0 0 0 0
09-10-2019 24 (13:40) 18.3 (00:00) 21.1 7.5 (20:10) 4.72 (12:10) 0 0 0 0 0
08-10-2019 23.1 (14:50) 18.5 (00:00) 20.8 7.22 (14:20) 5 (14:20) 0 0 0 0 0
07-10-2019 22.7 (14:40) 18.7 (00:00) 20.7 7.78 (12:50) 5 (13:00) 0 0 0 0 0
06-10-2019 23.6 (13:50) 18.7 (00:00) 21.2 8.89 (13:30) 5 (13:00) 0.4 0.2 0.2 0 0
05-10-2019 22.6 (13:20) 19.3 (07:40) 20.9 9.44 (12:20) 4.72 (11:30) 0.4 0 0.2 0.2 0
04-10-2019 25.2 (14:10) 18.3 (00:00) 21.8 6.11 (12:00) 3.61 (13:00) 0 0 0 0 0
03-10-2019 25.1 (16:00) 18.5 (00:00) 21.8 7.22 (23:50) 3.33 (06:40) 0 0 0 0 0
02-10-2019 30.3 (13:50) 18.6 (00:00) 24.4 6.11 (12:30) 3.89 (04:50) 0 0 0 0 0
01-10-2019 26.5 (14:40) 17.7 (00:00) 22.1 6.11 (14:10) 3.89 (16:10) 0 0 0 0 0
30-09-2019 23.6 (12:50) 18.7 (00:00) 21.2 5.83 (12:00) 3.33 (12:00) 0 0 0 0 0
29-09-2019 22.8 (14:10) 18.4 (00:00) 20.6 5.83 (13:10) 3.61 (13:30) 0 0 0 0 0
28-09-2019 21.9 (12:10) 18.9 (00:00) 20.4 6.11 (17:40) 3.33 (11:00) 0 0 0 0 0
27-09-2019 24.1 (12:40) 18.3 (00:00) 21.2 7.22 (13:50) 5 (13:40) 0.2 0 0 0.2 0
26-09-2019 25.6 (12:00) 19.1 (00:00) 22.4 8.61 (00:40) 5.83 (11:30) 2.4 0 0 0 2.4
25-09-2019 24.4 (13:30) 17.2 (00:00) 20.8 10.28 (22:50) 6.11 (22:50) 0 0 0 0 0
24-09-2019 21 (13:00) 17 (00:00) 19 6.11 (07:00) 4.72 (06:40) 2 0 2 0 0
23-09-2019 21.1 (12:50) 18.2 (00:00) 19.7 5.56 (07:10) 4.17 (22:20) 2.8 0.6 0 2.2 0
22-09-2019 24.8 (12:50) 19.6 (00:00) 22.2 6.11 (19:40) 3.89 (21:30) 17.2 0.2 2.2 1 13.8
21-09-2019 28.3 (13:10) 18 (00:00) 23.1 6.67 (12:40) 3.61 (05:10) 0 0 0 0 0
20-09-2019 26.9 (12:10) 17.4 (00:00) 22.1 5 (08:00) 3.33 (15:40) 0 0 0 0 0
19-09-2019 25.3 (13:50) 17.5 (00:00) 21.4 6.11 (11:10) 3.89 (11:10) 0 0 0 0 0
18-09-2019 25.1 (15:30) 18.1 (00:00) 21.6 6.39 (12:10) 4.72 (12:10) 0 0 0 0 0
17-09-2019 22.5 (17:20) 18.9 (00:00) 20.7 6.11 (13:30) 3.89 (13:30) 0 0 0 0 0
16-09-2019 22.6 (11:50) 18 (00:00) 20.3 5.56 (11:30) 3.33 (13:30) 0 0 0 0 0
15-09-2019 25.7 (13:20) 17.7 (00:00) 21.7 7.5 (15:00) 4.72 (15:20) 0 0 0 0 0

Gráficas

Temp. máximas Temp. mínimas Temp. medias Precipitaciones Rachas de viento máximas Velocidades máximas media en intervalos de 10 minutos

Datos horarios

Fecha y hora oficial Temperatura (ºC) Velocidad del viento (km/h) Dirección del viento Racha (km/h) Dirección de racha Precipitación (mm) Presión (hPa) Tendencia (hPa) Humedad (%)
2019-10-14 23:00:00 17.1 8 Sudoeste 14 Sudoeste 0 -- -- 87
2019-10-14 22:00:00 17.1 8 Sudoeste 14 Sudoeste 0 -- -- 87
2019-10-14 21:00:00 17.2 8 Sudoeste 14 Sudoeste 0 -- -- 88
2019-10-14 20:00:00 17.4 9 Sudoeste 13 Sudoeste 0 -- -- 89
2019-10-14 19:00:00 17.7 6 Sudoeste 12 Sudoeste 0 -- -- 89
2019-10-14 18:00:00 18.4 6 Sudoeste 15 Sudoeste 0 -- -- 85
2019-10-14 17:00:00 17.7 10 Sudoeste 18 Sudoeste 0.2 -- -- 89
2019-10-14 16:00:00 17.3 8 Sudoeste 18 Sudoeste 0.6 -- -- 90
2019-10-14 15:00:00 17.9 5 Norte 19 Sudoeste 0 -- -- 89
2019-10-14 14:00:00 17.5 8 Sudoeste 19 Sudoeste 0.4 -- -- 91
2019-10-14 13:00:00 17.6 6 Sudoeste 16 Sudoeste 0.6 -- -- 91
2019-10-14 12:00:00 17.2 6 Norte 21 Sudoeste 0.4 -- -- 95
2019-10-14 11:00:00 17.1 17 Sudoeste 26 Sudoeste 0 -- -- 88
2019-10-14 10:00:00 16.2 15 Sudoeste 22 Sudoeste 3 -- -- 90
2019-10-14 09:00:00 16.3 7 Oeste 18 Norte 3.6 -- -- 95
2019-10-14 08:00:00 16.8 6 Oeste 15 Sudoeste 1.6 -- -- 93
2019-10-14 07:00:00 16.8 8 Sudoeste 15 Sudoeste 3.2 -- -- 96
2019-10-14 06:00:00 16.8 7 Sudoeste 17 Oeste 1 -- -- 96
2019-10-14 05:00:00 16.9 6 Oeste 14 Oeste 3.2 -- -- 96
2019-10-14 04:00:00 16.9 5 Oeste 13 Sudoeste 2 -- -- 96
2019-10-14 03:00:00 16.8 4 Oeste 18 Noroeste 3.2 -- -- 97
2019-10-14 02:00:00 17 6 Noroeste 12 Oeste 4.6 -- -- 98
2019-10-14 01:00:00 17.3 2 Oeste 15 Norte 3.2 -- -- 98
2019-10-14 00:00:00 17.4 4 Noroeste 9 Noroeste 4.8 -- -- 97
2019-10-13 23:00:00 17.5 5 Oeste 13 Noroeste 4.2 -- -- 96
2019-10-13 22:00:00 17.6 4 Noroeste 16 Noroeste 8.4 -- -- 97
2019-10-13 21:00:00 17.7 6 Noroeste 15 Norte 5.4 -- -- 98
2019-10-13 20:00:00 17.8 4 Nordeste 18 Norte 6.4 -- -- 99
2019-10-13 19:00:00 17.8 8 Norte 21 Norte 8.8 -- -- 98
2019-10-13 18:00:00 18.1 12 Nordeste 24 Norte 27.8 -- -- 98
2019-10-13 17:00:00 19.6 7 Norte 39 Norte 4.4 -- -- 93
2019-10-13 16:00:00 23.2 13 Nordeste 35 Norte 0 -- -- 59
2019-10-13 15:00:00 24 13 Este 21 Este 0 -- -- 63
2019-10-13 14:00:00 24.4 13 Este 22 Nordeste 0 -- -- 59
2019-10-13 13:00:00 25 10 Este 17 Este 0 -- -- 54
2019-10-13 12:00:00 24.3 9 Nordeste 18 Este 0 -- -- 54
2019-10-13 11:00:00 23.7 10 Este 17 Este 0 -- -- 56
2019-10-13 10:00:00 20.8 5 Este 12 Sudoeste 0 -- -- 64
2019-10-13 09:00:00 18.2 8 Sudoeste 21 Sudoeste 0 -- -- 72
2019-10-13 08:00:00 16.7 13 Sudoeste 18 Sudoeste 0 -- -- 77
2019-10-13 07:00:00 16.6 13 Sudoeste 17 Sudoeste 0 -- -- 78
2019-10-13 06:00:00 16.5 12 Sudoeste 17 Sudoeste 0 -- -- 79
2019-10-13 05:00:00 16.8 14 Sudoeste 17 Sudoeste 0 -- -- 79
2019-10-13 04:00:00 17.1 10 Sudoeste 15 Sudoeste 0 -- -- 76
2019-10-13 03:00:00 17.4 11 Sudoeste 22 Sudoeste 0 -- -- 74
2019-10-13 02:00:00 17.7 15 Sudoeste 23 Sudoeste 0 -- -- 74
2019-10-13 01:00:00 17.4 13 Sudoeste 19 Sudoeste 0 -- -- 74
2019-10-13 00:00:00 18 11 Sudoeste 22 Sudoeste 0 -- -- 68
2019-10-12 23:00:00 17.6 12 Sudoeste 18 Sudoeste 0 -- -- 72
2019-10-12 22:00:00 17.9 10 Sudoeste 16 Oeste 0 -- -- 72
2019-10-12 21:00:00 17.8 7 Sudoeste 15 Sudoeste 0 -- -- 76
2019-10-12 20:00:00 18.8 6 Oeste 11 Norte 0 -- -- 72
2019-10-12 19:00:00 20.8 4 Noroeste 22 Norte 0 -- -- 64
2019-10-12 18:00:00 21.3 13 Norte 21 Norte 0 -- -- 60
2019-10-12 17:00:00 21.6 13 Norte 25 Nordeste 0 -- -- 61
2019-10-12 16:00:00 22.4 11 Nordeste 23 Norte 0 -- -- 59
2019-10-12 15:00:00 22 9 Norte 17 Norte 0 -- -- 62
2019-10-12 14:00:00 21.8 5 Nordeste 13 Nordeste 0 -- -- 62
2019-10-12 13:00:00 21.7 9 Nordeste 15 Nordeste 0 -- -- 64
2019-10-12 12:00:00 22.5 11 Nordeste 18 Este 0 -- -- 64
2019-10-12 11:00:00 23.8 11 Este 17 Este 0 -- -- 65
2019-10-12 10:00:00 20.5 8 Sudoeste 16 Sudoeste 0 -- -- 65
2019-10-12 09:00:00 18.5 12 Sudoeste 18 Sudoeste 0 -- -- 72
2019-10-12 08:00:00 18.3 10 Sudoeste 16 Sur 0 -- -- 75
2019-10-12 07:00:00 18.4 9 Sudoeste 16 Oeste 0 -- -- 77
2019-10-12 06:00:00 18.6 7 Oeste 11 Sudoeste 0 -- -- 79
2019-10-12 05:00:00 18.7 4 Oeste 15 Sudoeste 0 -- -- 75
2019-10-12 04:00:00 18.5 9 Sudoeste 15 Sudoeste 0 -- -- 75
2019-10-12 03:00:00 18.5 11 Sudoeste 14 Sudoeste 0 -- -- 75
2019-10-12 02:00:00 18.4 10 Sudoeste 16 Sudoeste 0 -- -- 75
2019-10-12 01:00:00 18.2 9 Sudoeste 21 Sudoeste 0 -- -- 76
2019-10-12 00:00:00 17.9 10 Sudoeste 22 Sudoeste 0 -- -- 78
2019-10-11 23:00:00 17.4 16 Sudoeste 23 Sudoeste 0 -- -- 81
2019-10-11 22:00:00 17.8 12 Sudoeste 20 Sudoeste 0 -- -- 79
2019-10-11 21:00:00 17.7 13 Sudoeste 20 Sudoeste 0 -- -- 79
2019-10-11 20:00:00 18 12 Sudoeste 18 Sudoeste 0 -- -- 82
2019-10-11 19:00:00 18.6 7 Sudoeste 13 Sudoeste 0 -- -- 83
2019-10-11 18:00:00 19.6 8 Norte 14 Norte 0 -- -- 77
2019-10-11 17:00:00 20.6 6 Nordeste 14 Norte 0 -- -- 74
2019-10-11 16:00:00 20.3 9 Nordeste 21 Nordeste 0 -- -- 80
2019-10-11 15:00:00 20.1 13 Nordeste 20 Este 0 -- -- 86
2019-10-11 14:00:00 20.3 12 Nordeste 18 Nordeste 0 -- -- 82
2019-10-11 13:00:00 20.8 8 Nordeste 17 Este 0 -- -- 83
2019-10-11 12:00:00 20.1 9 Nordeste 22 Norte 0 -- -- 87
2019-10-11 11:00:00 20 7 Nordeste 15 Nordeste 0 -- -- 85
2019-10-11 10:00:00 19.2 4 Nordeste 10 Sudoeste 0 -- -- 89
2019-10-11 09:00:00 18.8 5 Oeste 16 Noroeste 0 -- -- 89
2019-10-11 08:00:00 18.4 7 Oeste 15 Oeste 0 -- -- 88
2019-10-11 07:00:00 18 9 Sudoeste 17 Sudoeste 0.2 -- -- 88
2019-10-11 06:00:00 17.5 11 Sudoeste 16 Sudoeste 0.4 -- -- 88
2019-10-11 05:00:00 18.2 11 Sudoeste 19 Sudoeste 0 -- -- 77
2019-10-11 04:00:00 18.2 10 Sudoeste 16 Sudoeste 0 -- -- 83
2019-10-11 03:00:00 18.1 8 Sudoeste 15 Sur 0.2 -- -- 88
2019-10-11 02:00:00 18.1 11 Sudoeste 16 Sudoeste 0.2 -- -- 88
2019-10-11 01:00:00 18.7 7 Sudoeste 13 Sudoeste 0 -- -- 90
2019-10-11 00:00:00 18.9 4 Noroeste 10 Nordeste 0 -- -- 92
2019-10-10 23:00:00 18.9 6 Nordeste 13 Este 0 -- -- 92
2019-10-10 22:00:00 18.8 10 Nordeste 21 Nordeste 0 -- -- 92
2019-10-10 21:00:00 19 12 Este 23 Este 0 -- -- 91
2019-10-10 20:00:00 19.1 14 Este 22 Nordeste 0 -- -- 91
2019-10-10 19:00:00 19.4 15 Este 23 Nordeste 0 -- -- 91
2019-10-10 18:00:00 19.7 14 Este 25 Nordeste 0 -- -- 90
2019-10-10 17:00:00 19.8 16 Este 28 Este 0 -- -- 90
2019-10-10 16:00:00 20 16 Este 27 Este 0 -- -- 91
2019-10-10 15:00:00 20.4 18 Este 27 Este 0 -- -- 88
2019-10-10 14:00:00 20.8 18 Este 27 Este 0 -- -- 87
2019-10-10 13:00:00 20.8 15 Este 23 Este 0 -- -- 86
2019-10-10 12:00:00 20.8 16 Nordeste 24 Este 0 -- -- 87
2019-10-10 11:00:00 20.9 13 Este 18 Este 0 -- -- 85
2019-10-10 10:00:00 19.8 4 Este 10 Este 0 -- -- 87
2019-10-10 09:00:00 19 6 Sudoeste 14 Sudoeste 0 -- -- 84
2019-10-10 08:00:00 19.1 9 Sudoeste 22 Sudoeste 0 -- -- 79
2019-10-10 07:00:00 19.4 6 Sudeste 21 Oeste 0 -- -- 76
2019-10-10 06:00:00 19.6 5 Sudeste 24 Sur 0 -- -- 72
2019-10-10 05:00:00 18.9 10 Sudoeste 17 Sudoeste 0 -- -- 75
2019-10-10 04:00:00 19.3 8 Sudoeste 20 Sudoeste 0 -- -- 72
2019-10-10 03:00:00 19.7 10 Sudoeste 33 Sur 0 -- -- 73
2019-10-10 02:00:00 19.1 14 Sudoeste 20 Sudoeste 0 -- -- 73
2019-10-10 01:00:00 19 11 Sudoeste 15 Sudoeste 0 -- -- 77
2019-10-10 00:00:00 19.5 4 Sudoeste 18 Sudoeste 0 -- -- 81
2019-10-09 23:00:00 19.6 7 Sudeste 13 Sudeste 0 -- -- 82
2019-10-09 22:00:00 20 5 Sur 24 Sudoeste 0 -- -- 72
2019-10-09 21:00:00 20.1 10 Sudoeste 27 Sudoeste 0 -- -- 72
2019-10-09 20:00:00 19.8 12 Sudoeste 18 Sudoeste 0 -- -- 72
2019-10-09 19:00:00 20.5 5 Sudoeste 18 Sudeste 0 -- -- 72
2019-10-09 18:00:00 21.5 9 Este 15 Este 0 -- -- 69
2019-10-09 17:00:00 21.2 9 Sudeste 20 Este 0 -- -- 71
2019-10-09 16:00:00 22.1 12 Este 24 Este 0 -- -- 68
2019-10-09 15:00:00 23.5 13 Este 26 Este 0 -- -- 60
2019-10-09 14:00:00 23.8 10 Este 26 Este 0 -- -- 58
2019-10-09 13:00:00 22 9 Sur 25 Este 0 -- -- 63
2019-10-09 12:00:00 21.5 16 Este 22 Este 0 -- -- 69
2019-10-09 11:00:00 20.4 8 Sur 18 Este 0 -- -- 71
2019-10-09 10:00:00 19.5 9 Sur 17 Sudoeste 0 -- -- 75
2019-10-09 09:00:00 19 5 Sur 15 Sur 0 -- -- 76
2019-10-09 08:00:00 18.8 7 Sur 21 Sudoeste 0 -- -- 79
2019-10-09 07:00:00 18.5 10 Sudoeste 23 Sudoeste 0 -- -- 76
2019-10-09 06:00:00 18.8 8 Sudoeste 17 Sudoeste 0 -- -- 76
2019-10-09 05:00:00 18.7 8 Sudoeste 16 Sudoeste 0 -- -- 77
2019-10-09 04:00:00 18.6 12 Sudoeste 18 Sudoeste 0 -- -- 78
2019-10-09 03:00:00 18.4 8 Sudoeste 13 Sudoeste 0 -- -- 78
2019-10-09 02:00:00 18.7 7 Sudoeste 13 Sur 0 -- -- 77
2019-10-09 01:00:00 18.8 9 Sudoeste 14 Sudoeste 0 -- -- 80
2019-10-09 00:00:00 18.9 8 Sudoeste 12 Sudoeste 0 -- -- 80
2019-10-08 23:00:00 19.3 5 Sur 10 Sudoeste 0 -- -- 79
2019-10-08 22:00:00 19.4 3 Sur 14 Este 0 -- -- 80
2019-10-08 21:00:00 19.5 4 Nordeste 9 Sudoeste 0 -- -- 81
2019-10-08 20:00:00 19.7 0 Calma 17 Este 0 -- -- 76
2019-10-08 19:00:00 20.3 7 Este 13 Nordeste 0 -- -- 80
2019-10-08 18:00:00 20.9 9 Este 15 Nordeste 0 -- -- 78
2019-10-08 17:00:00 21.3 5 Este 18 Este 0 -- -- 75
2019-10-08 16:00:00 21.8 10 Nordeste 18 Este 0 -- -- 73
2019-10-08 15:00:00 22.8 14 Este 26 Este 0 -- -- 67
2019-10-08 14:00:00 22.8 16 Este 24 Este 0 -- -- 68
2019-10-08 13:00:00 21.4 8 Este 23 Este 0 -- -- 73
2019-10-08 12:00:00 20.8 10 Este 22 Este 0 -- -- 76
2019-10-08 11:00:00 20.2 9 Sudeste 17 Este 0 -- -- 75
2019-10-08 10:00:00 19.6 4 Sudeste 14 Nordeste 0 -- -- 78
2019-10-08 09:00:00 19.1 6 Sur 13 Sudoeste 0 -- -- 81
2019-10-08 08:00:00 19 4 Sur 15 Sudoeste 0 -- -- 83
2019-10-08 07:00:00 18.9 10 Sudoeste 18 Sudoeste 0 -- -- 80
2019-10-08 06:00:00 18.8 8 Sudoeste 12 Sur 0 -- -- 81
2019-10-08 05:00:00 18.9 4 Sudoeste 20 Sudoeste 0 -- -- 83
2019-10-08 04:00:00 18.7 11 Sudoeste 18 Sudoeste 0 -- -- 80
2019-10-08 03:00:00 18.7 9 Sudoeste 17 Sudoeste 0 -- -- 80
2019-10-08 02:00:00 19.2 5 Sur 19 Sudoeste 0 -- -- 80
2019-10-08 01:00:00 19.3 6 Sur 14 Sudeste 0 -- -- 82
2019-10-08 00:00:00 19.2 12 Sudoeste 18 Sudoeste 0 -- -- 79
2019-10-07 23:00:00 19.4 8 Sudoeste 14 Sudoeste 0 -- -- 80
2019-10-07 22:00:00 19.5 6 Sudeste 12 Sudeste 0 -- -- 83
2019-10-07 21:00:00 19.5 6 Sur 14 Este 0 -- -- 86
2019-10-07 20:00:00 19.9 7 Este 12 Este 0 -- -- 80
2019-10-07 19:00:00 20.4 9 Este 14 Este 0 -- -- 80
2019-10-07 18:00:00 21 5 Sudeste 16 Este 0 -- -- 72
2019-10-07 17:00:00 21.6 10 Este 20 Este 0 -- -- 75
2019-10-07 16:00:00 22.3 11 Este 21 Este 0 -- -- 73
2019-10-07 15:00:00 22.6 15 Este 22 Este 0 -- -- 71
2019-10-07 14:00:00 22.2 8 Este 27 Este 0 -- -- 72
2019-10-07 13:00:00 22.3 18 Este 28 Este 0 -- -- 69
2019-10-07 12:00:00 20.9 10 Sudeste 23 Sur 0 -- -- 72
2019-10-07 11:00:00 20.2 11 Este 23 Sudeste 0 -- -- 74
2019-10-07 10:00:00 19.4 12 Sudeste 21 Sudeste 0 -- -- 79
2019-10-07 09:00:00 18.9 8 Sudeste 19 Sudeste 0 -- -- 81
2019-10-07 08:00:00 18.8 8 Sudeste 24 Oeste 0 -- -- 84
2019-10-07 07:00:00 18.8 9 Este 17 Sudoeste 0 -- -- 85
2019-10-07 06:00:00 18.8 6 Sur 24 Sudoeste 0 -- -- 87
2019-10-07 05:00:00 18.9 6 Sur 15 Sudeste 0 -- -- 79
2019-10-07 04:00:00 18.9 5 Sudeste 22 Sudoeste 0 -- -- 79
2019-10-07 03:00:00 18.9 7 Sur 14 Sudoeste 0 -- -- 79
2019-10-07 02:00:00 19 8 Sudeste 15 Sudeste 0 -- -- 79
2019-10-07 01:00:00 19.1 9 Sudoeste 17 Oeste 0 -- -- 79
2019-10-07 00:00:00 19.1 9 Sudoeste 16 Oeste 0 -- -- 81
2019-10-06 23:00:00 19.2 10 Sudoeste 21 Sudeste 0 -- -- 80
2019-10-06 22:00:00 19.3 8 Sudeste 15 Sudeste 0 -- -- 82
2019-10-06 21:00:00 19.2 7 Sudeste 15 Sudeste 0 -- -- 85
2019-10-06 20:00:00 19.4 9 Este 18 Sudoeste 0 -- -- 85
2019-10-06 19:00:00 19.6 6 Sudeste 20 Este 0 -- -- 86
2019-10-06 18:00:00 20.7 7 Sudeste 20 Este 0 -- -- 77
2019-10-06 17:00:00 21 5 Sudeste 21 Este 0 -- -- 76
2019-10-06 16:00:00 21.8 16 Este 25 Nordeste 0 -- -- 71
2019-10-06 15:00:00 21.9 18 Este 28 Este 0 -- -- 74
2019-10-06 14:00:00 22.8 12 Este 32 Este 0 -- -- 69
2019-10-06 13:00:00 22.9 18 Este 29 Este 0 -- -- 72
2019-10-06 12:00:00 20.6 10 Sudeste 21 Este 0 -- -- 81
2019-10-06 11:00:00 19.9 9 Sudeste 18 Este 0 -- -- 88
2019-10-06 10:00:00 19.8 6 Sudoeste 15 Este 0 -- -- 84
2019-10-06 09:00:00 19.3 10 Sudoeste 18 Sudoeste 0 -- -- 82
2019-10-06 08:00:00 18.8 8 Sudoeste 20 Sudoeste 0.2 -- -- 90
2019-10-06 07:00:00 18.8 10 Sur 20 Sudoeste 0 -- -- 88
2019-10-06 06:00:00 19 9 Sudoeste 17 Sudoeste 0.2 -- -- 89
2019-10-06 05:00:00 19.6 11 Sudoeste 30 Sudoeste 0 -- -- 84
2019-10-06 04:00:00 19.4 8 Sudeste 18 Sudoeste 0 -- -- 84
2019-10-06 03:00:00 19.6 9 Este 20 Este 0 -- -- 85
2019-10-06 02:00:00 19.4 8 Sur 18 Sudoeste 0 -- -- 87
2019-10-06 01:00:00 19.6 7 Sudoeste 17 Sudoeste 0 -- -- 88
2019-10-06 00:00:00 19.6 5 Sur 11 Sudoeste 0 -- -- 89
2019-10-05 23:00:00 19.6 4 Sudeste 10 Sudeste 0 -- -- 91
2019-10-05 22:00:00 19.9 8 Sudoeste 32 Sudoeste 0 -- -- 88
2019-10-05 21:00:00 20.5 8 Sur 19 Sudoeste 0 -- -- 83
2019-10-05 20:00:00 20.4 11 Sudoeste 17 Sudoeste 0 -- -- 82
2019-10-05 19:00:00 21.4 5 Sur 16 Nordeste 0 -- -- 76
2019-10-05 18:00:00 21.7 6 Norte 23 Este 0 -- -- 79
2019-10-05 17:00:00 22 9 Sudoeste 23 Sudoeste 0 -- -- 77
2019-10-05 16:00:00 21.8 8 Este 24 Nordeste 0 -- -- 85
2019-10-05 15:00:00 21.4 10 Este 19 Este 0 -- -- 90
2019-10-05 14:00:00 21.1 7 Sur 23 Este 0.2 -- -- 90
2019-10-05 13:00:00 22 7 Sudeste 34 Oeste 0 -- -- 80
2019-10-05 12:00:00 20.2 9 Sudeste 26 Este 0.2 -- -- 91
2019-10-05 11:00:00 20.8 11 Este 23 Nordeste 0 -- -- 91
2019-10-05 10:00:00 20.7 8 Sur 20 Sur 0 -- -- 83
2019-10-05 09:00:00 19.9 9 Sudeste 21 Sudoeste 0 -- -- 87
2019-10-05 08:00:00 19.4 11 Sudoeste 21 Sudoeste 0 -- -- 91
2019-10-05 07:00:00 19.5 9 Sudeste 18 Oeste 0 -- -- 89
2019-10-05 06:00:00 19.5 7 Sudoeste 15 Sudeste 0 -- -- 87
2019-10-05 05:00:00 19.6 6 Sudoeste 25 Sudoeste 0 -- -- 86
2019-10-05 04:00:00 19.5 10 Sudoeste 20 Sudoeste 0 -- -- 82
2019-10-05 03:00:00 19.4 8 Sudoeste 14 Sudoeste 0 -- -- 84
2019-10-05 02:00:00 19.5 5 Sudeste 18 Sudoeste 0 -- -- 86
2019-10-05 01:00:00 19.6 5 Sur 13 Sudoeste 0 -- -- 86
2019-10-05 00:00:00 19.8 8 Sudeste 18 Sudoeste 0 -- -- 86
2019-10-04 23:00:00 19.9 8 Sur 17 Sudoeste 0 -- -- 85
2019-10-04 22:00:00 19.9 6 Sur 13 Este 0 -- -- 83
2019-10-04 21:00:00 19.9 8 Sudoeste 19 Este 0 -- -- 84
2019-10-04 20:00:00 20.3 7 Este 13 Este 0 -- -- 83
2019-10-04 19:00:00 20.8 8 Nordeste 14 Este 0 -- -- 81
2019-10-04 18:00:00 22 9 Este 17 Nordeste 0 -- -- 77
2019-10-04 17:00:00 23.4 10 Este 17 Nordeste 0 -- -- 72
2019-10-04 16:00:00 24.4 9 Este 19 Este 0 -- -- 69
2019-10-04 15:00:00 24.8 10 Este 19 Este 0 -- -- 68
2019-10-04 14:00:00 24.8 9 Este 20 Este 0 -- -- 69
2019-10-04 13:00:00 25 13 Este 22 Este 0 -- -- 67
2019-10-04 12:00:00 24.3 12 Este 22 Este 0 -- -- 69
2019-10-04 11:00:00 22.5 11 Este 18 Este 0 -- -- 77
2019-10-04 10:00:00 19.9 5 Sudeste 12 Este 0 -- -- 87
2019-10-04 09:00:00 18.8 8 Sudoeste 14 Sudoeste 0 -- -- 90
2019-10-04 08:00:00 18.6 9 Sudoeste 14 Sudoeste 0 -- -- 91
2019-10-04 07:00:00 18.5 10 Sudoeste 16 Sudoeste 0 -- -- 92
2019-10-04 06:00:00 18.5 11 Sudoeste 16 Sudoeste 0 -- -- 93
2019-10-04 05:00:00 18.4 10 Sudoeste 17 Sudoeste 0 -- -- 93
2019-10-04 04:00:00 18.7 6 Sudoeste 10 Sudoeste 0 -- -- 93
2019-10-04 03:00:00 18.5 7 Sudoeste 12 Sudoeste 0 -- -- 95
2019-10-04 02:00:00 18.4 4 Sur 16 Oeste 0 -- -- 95
2019-10-04 01:00:00 18.7 4 Sudoeste 15 Sur 0 -- -- 95
2019-10-04 00:00:00 18.6 8 Sudoeste 26 Sudoeste 0 -- -- 94
2019-10-03 23:00:00 18.7 9 Sudoeste 18 Sudoeste 0 -- -- 92
2019-10-03 22:00:00 18.9 6 Sudoeste 13 Sudoeste 0 -- -- 92
2019-10-03 21:00:00 19.2 5 Sudoeste 13 Sur 0 -- -- 91
2019-10-03 20:00:00 20 8 Sudeste 14 Sur 0 -- -- 91
2019-10-03 19:00:00 20.6 10 Sudeste 17 Sur 0 -- -- 87
2019-10-03 18:00:00 21.6 9 Sur 17 Sur 0 -- -- 84
2019-10-03 17:00:00 23 7 Sudeste 19 Este 0 -- -- 79
2019-10-03 16:00:00 25.1 7 Sudeste 20 Este 0 -- -- 72
2019-10-03 15:00:00 24.5 10 Este 21 Este 0 -- -- 75
2019-10-03 14:00:00 24.4 8 Sur 20 Este 0 -- -- 76
2019-10-03 13:00:00 24.3 11 Sudeste 23 Sur 0 -- -- 76
2019-10-03 12:00:00 24 9 Sudeste 18 Sur 0 -- -- 78
2019-10-03 11:00:00 24.8 10 Sur 17 Sudeste 0 -- -- 68
2019-10-03 10:00:00 24 9 Sur 19 Sudeste 0 -- -- 57
2019-10-03 09:00:00 22.5 6 Sur 18 Sudoeste 0 -- -- 54
2019-10-03 08:00:00 22.2 8 Sudoeste 17 Sudoeste 0 -- -- 48
2019-10-03 07:00:00 22 10 Sudoeste 17 Sudoeste 0 -- -- 45
2019-10-03 06:00:00 20.9 11 Sudoeste 17 Sudoeste 0 -- -- 35
2019-10-03 05:00:00 21.8 10 Sudoeste 16 Sudoeste 0 -- -- 36
2019-10-03 04:00:00 19.2 7 Sudoeste 19 Oeste 0 -- -- 42
2019-10-03 03:00:00 19 10 Sudoeste 17 Sudoeste 0 -- -- 95
2019-10-03 02:00:00 19.4 6 Sur 15 Oeste 0 -- -- 94
2019-10-03 01:00:00 19.7 8 Sudoeste 13 Sudoeste 0 -- -- 93
2019-10-03 00:00:00 19.8 5 Sur 11 Sudoeste 0 -- -- 94
2019-10-02 23:00:00 19.7 5 Sudoeste 10 Sudoeste 0 -- -- 95
2019-10-02 22:00:00 20 6 Sur 12 Sur 0 -- -- 75
2019-10-02 21:00:00 20.8 8 Sur 13 Sudeste 0 -- -- 75
2019-10-02 20:00:00 20.8 3 Sudeste 10 Este 0 -- -- 90
2019-10-02 19:00:00 22.4 3 Norte 13 Sudeste 0 -- -- 84
2019-10-02 18:00:00 23.2 9 Sudeste 17 Sudeste 0 -- -- 82
2019-10-02 17:00:00 25.3 9 Sudeste 15 Este 0 -- -- 74
2019-10-02 16:00:00 25.9 10 Sudeste 14 Sudeste 0 -- -- 72
2019-10-02 15:00:00 30 8 Este 19 Sudeste 0 -- -- 57
2019-10-02 14:00:00 30.1 11 Sur 21 Sudeste 0 -- -- 28
2019-10-02 13:00:00 29.4 12 Sur 22 Sudeste 0 -- -- 31
2019-10-02 12:00:00 28.2 12 Sur 20 Sur 0 -- -- 30
2019-10-02 11:00:00 29.4 11 Sur 21 Sur 0 -- -- 33
2019-10-02 10:00:00 27.5 9 Sur 21 Sudeste 0 -- -- 30
2019-10-02 09:00:00 25.6 9 Sudoeste 19 Sudoeste 0 -- -- 34
2019-10-02 08:00:00 22.9 11 Sudoeste 20 Sur 0 -- -- 36
2019-10-02 07:00:00 23.6 12 Sudoeste 20 Sudoeste 0 -- -- 35
2019-10-02 06:00:00 22.9 13 Sudoeste 19 Sudoeste 0 -- -- 39
2019-10-02 05:00:00 23.4 13 Sudoeste 19 Sur 0 -- -- 34
2019-10-02 04:00:00 19.1 11 Sur 20 Sudeste 0 -- -- 63
2019-10-02 03:00:00 21.4 9 Sudoeste 16 Sudoeste 0 -- -- 42
2019-10-02 02:00:00 20.7 11 Sudoeste 17 Sudoeste 0 -- -- 44
2019-10-02 01:00:00 18.7 8 Sudoeste 15 Sudoeste 0 -- -- 82
2019-10-02 00:00:00 19.6 4 Sudoeste 9 Sudoeste 0 -- -- 92
2019-10-01 23:00:00 19.8 2 Sudoeste 7 Sudoeste 0 -- -- 93
2019-10-01 22:00:00 19.6 4 Sur 11 Sudeste 0 -- -- 93
2019-10-01 21:00:00 20 6 Sudoeste 16 Sudeste 0 -- -- 92
2019-10-01 20:00:00 21.6 6 Sur 16 Sur 0 -- -- 84
2019-10-01 19:00:00 25.2 7 Sudeste 18 Sur 0 -- -- 68
2019-10-01 18:00:00 25.4 9 Sur 16 Sur 0 -- -- 53
2019-10-01 17:00:00 25.3 12 Sur 19 Sur 0 -- -- 73
2019-10-01 16:00:00 25.5 13 Sur 19 Sur 0 -- -- 71
2019-10-01 15:00:00 25.6 12 Sudeste 22 Sudeste 0 -- -- 72
2019-10-01 14:00:00 25.2 12 Sur 21 Este 0 -- -- 72
2019-10-01 13:00:00 23.4 10 Sudeste 21 Sudeste 0 -- -- 78
2019-10-01 12:00:00 22.9 8 Este 17 Este 0 -- -- 79
2019-10-01 11:00:00 22.1 7 Sudeste 18 Este 0 -- -- 81
2019-10-01 10:00:00 20.7 6 Este 10 Este 0 -- -- 90
2019-10-01 09:00:00 18.5 4 Sudoeste 10 Sudoeste 0 -- -- 97
2019-10-01 08:00:00 18.2 5 Sudoeste 11 Sudoeste 0 -- -- 96
2019-10-01 07:00:00 18.2 4 Sur 14 Sudoeste 0 -- -- 94
2019-10-01 06:00:00 18.1 5 Sur 15 Sudoeste 0 -- -- 94
2019-10-01 05:00:00 18.3 10 Sudoeste 16 Sudoeste 0 -- -- 95
2019-10-01 04:00:00 18.3 5 Sur 12 Oeste 0 -- -- 95
2019-10-01 03:00:00 18.1 5 Sudoeste 11 Sudoeste 0 -- -- 95
2019-10-01 02:00:00 17.7 5 Sudoeste 17 Sudoeste 0 -- -- 93
2019-10-01 01:00:00 18.5 10 Sudoeste 18 Sudoeste 0 -- -- 92
2019-10-01 00:00:00 18.7 11 Sudoeste 16 Sudoeste 0 -- -- 92
2019-09-30 23:00:00 19.1 9 Sudoeste 13 Sudoeste 0 -- -- 90
2019-09-30 22:00:00 19 8 Sudoeste 12 Sudoeste 0 -- -- 92
2019-09-30 21:00:00 19.5 4 Sudeste 12 Este 0 -- -- 89
2019-09-30 20:00:00 20.2 5 Este 13 Este 0 -- -- 87
2019-09-30 19:00:00 20.9 7 Este 13 Este 0 -- -- 84
2019-09-30 18:00:00 21.3 10 Este 14 Nordeste 0 -- -- 84
2019-09-30 17:00:00 21.3 7 Nordeste 15 Nordeste 0 -- -- 84
2019-09-30 16:00:00 21.9 9 Nordeste 16 Nordeste 0 -- -- 82
2019-09-30 15:00:00 22 10 Nordeste 17 Nordeste 0 -- -- 81
2019-09-30 14:00:00 22.1 7 Nordeste 17 Este 0 -- -- 80
2019-09-30 13:00:00 23.2 10 Nordeste 17 Nordeste 0 -- -- 78
2019-09-30 12:00:00 22.7 12 Este 21 Este 0 -- -- 78
2019-09-30 11:00:00 22 10 Este 18 Este 0 -- -- 81
2019-09-30 10:00:00 21 7 Sudeste 15 Sudoeste 0 -- -- 82
2019-09-30 09:00:00 19 9 Sudoeste 15 Sudoeste 0 -- -- 87
2019-09-30 08:00:00 19.2 11 Sudoeste 15 Sudoeste 0 -- -- 84
2019-09-30 07:00:00 19.5 8 Sudoeste 16 Sudoeste 0 -- -- 85
2019-09-30 06:00:00 19.4 4 Sur 9 Sudeste 0 -- -- 91
2019-09-30 05:00:00 19.4 5 Sur 10 Sur 0 -- -- 90
2019-09-30 04:00:00 19.5 4 Sudoeste 10 Este 0 -- -- 90
2019-09-30 03:00:00 19.6 4 Sudeste 12 Sudoeste 0 -- -- 89
2019-09-30 02:00:00 19.6 8 Sudoeste 15 Sudoeste 0 -- -- 87
2019-09-30 01:00:00 19.6 4 Sur 12 Sudoeste 0 -- -- 88
2019-09-30 00:00:00 19.6 2 Sudoeste 15 Sur 0 -- -- 86
2019-09-29 23:00:00 19.7 6 Sudoeste 10 Sudoeste 0 -- -- 87
2019-09-29 22:00:00 19.8 3 Sudeste 14 Sur 0 -- -- 90
2019-09-29 21:00:00 19.8 9 Sudoeste 16 Sudoeste 0 -- -- 86
2019-09-29 20:00:00 19.9 7 Este 13 Este 0 -- -- 88
2019-09-29 19:00:00 20.4 9 Este 17 Este 0 -- -- 87
2019-09-29 18:00:00 20.9 10 Este 15 Este 0 -- -- 85
2019-09-29 17:00:00 21.3 8 Este 18 Este 0 -- -- 83
2019-09-29 16:00:00 21.2 8 Este 18 Este 0 -- -- 83
2019-09-29 15:00:00 21.2 8 Este 21 Este 0 -- -- 82
2019-09-29 14:00:00 22.7 10 Este 21 Nordeste 0 -- -- 77
2019-09-29 13:00:00 21.5 9 Este 20 Sudeste 0 -- -- 79
2019-09-29 12:00:00 20 9 Sudeste 17 Sudeste 0 -- -- 86
2019-09-29 11:00:00 19.5 9 Sur 21 Sudeste 0 -- -- 89
2019-09-29 10:00:00 19.3 9 Sudeste 16 Sudeste 0 -- -- 89
2019-09-29 09:00:00 19.2 7 Sudoeste 14 Sur 0 -- -- 87
2019-09-29 08:00:00 18.9 5 Sudoeste 14 Sudeste 0 -- -- 90
2019-09-29 07:00:00 19 9 Sudeste 15 Sudeste 0 -- -- 89
2019-09-29 06:00:00 19 7 Sudeste 15 Este 0 -- -- 88
2019-09-29 05:00:00 19 8 Nordeste 14 Nordeste 0 -- -- 90
2019-09-29 04:00:00 19.1 5 Nordeste 13 Este 0 -- -- 88
2019-09-29 03:00:00 19.2 5 Sudeste 13 Sudoeste 0 -- -- 89
2019-09-29 02:00:00 19 10 Sudoeste 16 Sudoeste 0 -- -- 83
2019-09-29 01:00:00 18.7 8 Sudoeste 12 Sudoeste 0 -- -- 85
2019-09-29 00:00:00 18.9 5 Sur 10 Este 0 -- -- 86
2019-09-28 23:00:00 19.5 2 Sudeste 13 Este 0 -- -- 84
2019-09-28 22:00:00 19.7 5 Este 14 Sur 0 -- -- 84
2019-09-28 21:00:00 19.7 6 Sudeste 12 Sudeste 0 -- -- 84
2019-09-28 20:00:00 19.9 6 Sudeste 13 Nordeste 0 -- -- 82
2019-09-28 19:00:00 20.1 8 Este 17 Este 0 -- -- 80
2019-09-28 18:00:00 20.3 7 Sudeste 22 Este 0 -- -- 84
2019-09-28 17:00:00 21.5 7 Sudeste 16 Este 0 -- -- 78
2019-09-28 16:00:00 21.6 7 Este 19 Este 0 -- -- 78
2019-09-28 15:00:00 21.5 9 Sudeste 18 Este 0 -- -- 79
2019-09-28 14:00:00 21.2 9 Sur 20 Este 0 -- -- 79
2019-09-28 13:00:00 21.6 9 Este 21 Sudeste 0 -- -- 78
2019-09-28 12:00:00 21.5 9 Sudeste 19 Este 0 -- -- 76
2019-09-28 11:00:00 20.7 12 Este 19 Este 0 -- -- 82
2019-09-28 10:00:00 19.8 8 Sur 13 Sudeste 0 -- -- 85
2019-09-28 09:00:00 19.3 7 Sudeste 12 Oeste 0 -- -- 88
2019-09-28 08:00:00 19 4 Sur 17 Sudeste 0 -- -- 89
2019-09-28 07:00:00 19 8 Sudeste 14 Sudeste 0 -- -- 89
2019-09-28 06:00:00 19 6 Sudoeste 12 Oeste 0 -- -- 88
2019-09-28 05:00:00 19 8 Sudoeste 12 Sudoeste 0 -- -- 87
2019-09-28 04:00:00 19.2 6 Sudeste 14 Sudeste 0 -- -- 88
2019-09-28 03:00:00 19.2 8 Sudoeste 15 Oeste 0 -- -- 85
2019-09-28 02:00:00 19.3 5 Sudoeste 12 Sur 0 -- -- 88
2019-09-28 01:00:00 19.4 5 Sur 13 Sudoeste 0 -- -- 86
2019-09-28 00:00:00 19.6 7 Sudoeste 19 Sudoeste 0 -- -- 83
2019-09-27 23:00:00 19.2 15 Sudoeste 20 Sudoeste 0 -- -- 79
2019-09-27 22:00:00 18.9 11 Sudoeste 19 Sudoeste 0 -- -- 80
2019-09-27 21:00:00 19.4 9 Sudoeste 14 Oeste 0 -- -- 84
2019-09-27 20:00:00 19.9 7 Sudeste 14 Sudeste 0 -- -- 84
2019-09-27 19:00:00 20.7 10 Este 16 Este 0 -- -- 81
2019-09-27 18:00:00 21.8 13 Este 21 Este 0 -- -- 73
2019-09-27 17:00:00 21.9 6 Este 19 Este 0 -- -- 68
2019-09-27 16:00:00 22 13 Este 23 Este 0 -- -- 75
2019-09-27 15:00:00 21.6 15 Este 21 Este 0.2 -- -- 81
2019-09-27 14:00:00 22.8 16 Este 26 Este 0 -- -- 78
2019-09-27 13:00:00 23.4 15 Este 23 Este 0 -- -- 76
2019-09-27 12:00:00 23 14 Este 22 Nordeste 0 -- -- 74
2019-09-27 11:00:00 22 10 Este 19 Este 0 -- -- 74
2019-09-27 10:00:00 19.8 4 Sur 12 Sudoeste 0 -- -- 79
2019-09-27 09:00:00 18.9 10 Sudoeste 15 Sudoeste 0 -- -- 84
2019-09-27 08:00:00 18.4 10 Sudoeste 14 Sudoeste 0 -- -- 82
2019-09-27 07:00:00 18.7 6 Sudoeste 14 Sur 0 -- -- 85
2019-09-27 06:00:00 18.9 8 Sudeste 21 Sudoeste 0 -- -- 83
2019-09-27 05:00:00 18.5 9 Sudoeste 15 Sudoeste 0 -- -- 85
2019-09-27 04:00:00 18.5 10 Sudoeste 17 Sudoeste 0 -- -- 86
2019-09-27 03:00:00 18.7 7 Sudoeste 15 Sudoeste 0 -- -- 85
2019-09-27 02:00:00 19 7 Sudoeste 17 Sudoeste 0 -- -- 89
2019-09-27 01:00:00 19.1 9 Sudoeste 15 Sudoeste 0 -- -- 90
2019-09-27 00:00:00 19.1 6 Sudoeste 13 Sudoeste 0 -- -- 91
2019-09-26 23:00:00 19.4 6 Sur 14 Sudoeste 0 -- -- 88
2019-09-26 22:00:00 19.5 4 Sudeste 14 Nordeste 0 -- -- 91
2019-09-26 21:00:00 19.5 7 Sur 13 Sudeste 0.8 -- -- 93
2019-09-26 20:00:00 19.5 6 Sudoeste 12 Sudeste 1 -- -- 93
2019-09-26 19:00:00 20.5 3 Nordeste 18 Este 0.6 -- -- 90
2019-09-26 18:00:00 21.1 12 Nordeste 20 Nordeste 0 -- -- 86
2019-09-26 17:00:00 22.1 13 Este 22 Este 0 -- -- 80
2019-09-26 16:00:00 22.2 8 Sur 24 Este 0 -- -- 75
2019-09-26 15:00:00 22.5 12 Este 25 Este 0 -- -- 77
2019-09-26 14:00:00 22.7 10 Este 30 Este 0 -- -- 79
2019-09-26 13:00:00 24.2 19 Este 25 Este 0 -- -- 69
2019-09-26 12:00:00 25.6 18 Este 29 Este 0 -- -- 65
2019-09-26 11:00:00 24 18 Este 25 Este 0 -- -- 69
2019-09-26 10:00:00 20.8 6 Este 14 Sudoeste 0 -- -- 82
2019-09-26 09:00:00 19.9 6 Sur 19 Sudoeste 0 -- -- 88
2019-09-26 08:00:00 19.7 7 Sudeste 20 Este 0 -- -- 92
2019-09-26 07:00:00 19.7 4 Sur 18 Sudoeste 0 -- -- 84
2019-09-26 06:00:00 19.1 11 Sudoeste 19 Sudoeste 0 -- -- 79
2019-09-26 05:00:00 19.9 13 Sudoeste 24 Sudoeste 0 -- -- 77
2019-09-26 04:00:00 19.8 10 Sur 26 Sudoeste 0 -- -- 78
2019-09-26 03:00:00 19.7 13 Sudoeste 21 Sudoeste 0 -- -- 76
2019-09-26 02:00:00 20.2 13 Sudoeste 28 Sudoeste 0 -- -- 75
2019-09-26 01:00:00 20 10 Sur 31 Sudoeste 0 -- -- 78
2019-09-26 00:00:00 19.6 12 Sudoeste 21 Sudoeste 0 -- -- 82
2019-09-25 23:00:00 19.8 11 Sur 37 Sudoeste 0 -- -- 81
2019-09-25 22:00:00 18.6 14 Sudoeste 19 Sudoeste 0 -- -- 80
2019-09-25 21:00:00 19.1 12 Sudoeste 23 Sudoeste 0 -- -- 80
2019-09-25 20:00:00 20 7 Sur 14 Sur 0 -- -- 83
2019-09-25 19:00:00 20.9 5 Este 18 Este 0 -- -- 82
2019-09-25 18:00:00 21.2 8 Este 19 Nordeste 0 -- -- 80
2019-09-25 17:00:00 21.6 13 Este 21 Este 0 -- -- 76
2019-09-25 16:00:00 22.6 12 Este 21 Este 0 -- -- 75
2019-09-25 15:00:00 23.2 13 Este 26 Este 0 -- -- 72
2019-09-25 14:00:00 23.6 10 Este 23 Este 0 -- -- 70
2019-09-25 13:00:00 23.1 8 Este 24 Este 0 -- -- 68
2019-09-25 12:00:00 24.1 12 Este 19 Este 0 -- -- 64
2019-09-25 11:00:00 20.8 13 Sudoeste 24 Sudoeste 0 -- -- 76
2019-09-25 10:00:00 19.9 6 Sudoeste 18 Sudoeste 0 -- -- 78
2019-09-25 09:00:00 19.2 10 Sudoeste 16 Sudoeste 0 -- -- 80
2019-09-25 08:00:00 17.5 11 Sudoeste 21 Sudoeste 0 -- -- 87
2019-09-25 07:00:00 17.5 14 Sudoeste 19 Sudoeste 0 -- -- 83
2019-09-25 06:00:00 18.3 6 Sudoeste 12 Sudoeste 0 -- -- 86
2019-09-25 05:00:00 18 6 Sudoeste 20 Sudoeste 0 -- -- 85
2019-09-25 04:00:00 17.7 8 Sudoeste 24 Sudoeste 0 -- -- 84
2019-09-25 03:00:00 18.3 12 Sudoeste 18 Sudoeste 0 -- -- 84
2019-09-25 02:00:00 18.2 9 Sudoeste 18 Sudoeste 0 -- -- 85
2019-09-25 01:00:00 18.5 8 Sudoeste 15 Sudoeste 0 -- -- 84
2019-09-25 00:00:00 18.8 9 Sudoeste 21 Sudoeste 0 -- -- 82
2019-09-24 23:00:00 18.7 8 Sudoeste 15 Sudoeste 0 -- -- 84
2019-09-24 22:00:00 18.9 9 Sudoeste 15 Sudoeste 0 -- -- 85
2019-09-24 21:00:00 19.1 6 Sudoeste 18 Sudoeste 0 -- -- 84
2019-09-24 20:00:00 19.6 5 Sur 9 Sudeste 0 -- -- 83
2019-09-24 19:00:00 20.1 6 Este 16 Este 0 -- -- 83
2019-09-24 18:00:00 20.2 12 Este 19 Este 0 -- -- 84
2019-09-24 17:00:00 20.6 10 Nordeste 21 Este 0 -- -- 82
2019-09-24 16:00:00 20.7 11 Este 21 Este 0 -- -- 79
2019-09-24 15:00:00 20.2 5 Este 19 Nordeste 0 -- -- 81
2019-09-24 14:00:00 20.5 9 Este 19 Este 0 -- -- 82
2019-09-24 13:00:00 21 7 Este 17 Este 0 -- -- 81
2019-09-24 12:00:00 19.3 4 Nordeste 13 Sudoeste 0 -- -- 85
2019-09-24 11:00:00 18.8 8 Sudoeste 15 Sudoeste 0 -- -- 87
2019-09-24 10:00:00 18.3 6 Noroeste 19 Sudoeste 0.2 -- -- 89
2019-09-24 09:00:00 18.1 10 Sudoeste 20 Sudoeste 1.8 -- -- 92
2019-09-24 08:00:00 18.2 12 Sudoeste 19 Sudoeste 0 -- -- 80
2019-09-24 07:00:00 17.8 14 Sudoeste 22 Sudoeste 0 -- -- 77
2019-09-24 06:00:00 17.2 12 Sudoeste 18 Sudoeste 0 -- -- 84
2019-09-24 05:00:00 17.7 12 Sudoeste 16 Sur 0 -- -- 89
2019-09-24 04:00:00 18.6 4 Sudeste 18 Oeste 0 -- -- 89
2019-09-24 03:00:00 18.2 8 Sudoeste 18 Sudoeste 0 -- -- 87
2019-09-24 02:00:00 18.6 9 Sudoeste 16 Sudoeste 0 -- -- 88
2019-09-24 01:00:00 18.7 4 Sur 14 Sudoeste 0 -- -- 91
2019-09-24 00:00:00 18.7 6 Sur 19 Sudoeste 0 -- -- 90
2019-09-23 23:00:00 18.3 12 Sudoeste 19 Sudoeste 0 -- -- 88
2019-09-23 22:00:00 18.6 13 Sudoeste 17 Sudoeste 0 -- -- 89
2019-09-23 21:00:00 19 5 Sudoeste 9 Este 0 -- -- 92
2019-09-23 20:00:00 19.2 4 Sur 12 Sudoeste 0 -- -- 93
2019-09-23 19:00:00 19.5 6 Este 14 Sudeste 0 -- -- 93
2019-09-23 18:00:00 19.6 4 Sur 12 Nordeste 0.2 -- -- 92
2019-09-23 17:00:00 19.1 5 Sudoeste 13 Este 0.6 -- -- 93
2019-09-23 16:00:00 19.4 8 Sudeste 14 Este 0.6 -- -- 93
2019-09-23 15:00:00 19.6 3 Sudeste 14 Sudoeste 0.4 -- -- 91
2019-09-23 14:00:00 19.6 8 Sudoeste 18 Este 0.4 -- -- 91
2019-09-23 13:00:00 21.1 8 Este 14 Este 0 -- -- 89
2019-09-23 12:00:00 20 10 Este 16 Nordeste 0 -- -- 92
2019-09-23 11:00:00 19.8 4 Sudoeste 8 Nordeste 0 -- -- 89
2019-09-23 10:00:00 19.5 6 Sudoeste 13 Sudoeste 0 -- -- 89
2019-09-23 09:00:00 19 10 Sudoeste 14 Sudoeste 0 -- -- 90
2019-09-23 08:00:00 18.8 7 Sudoeste 20 Sudoeste 0 -- -- 93
2019-09-23 07:00:00 19.1 6 Sudoeste 12 Sudoeste 0 -- -- 92
2019-09-23 06:00:00 19.1 6 Este 13 Este 0 -- -- 93
2019-09-23 05:00:00 19.2 5 Este 12 Este 0 -- -- 93
2019-09-23 04:00:00 19.3 5 Nordeste 13 Sudoeste 0.2 -- -- 93
2019-09-23 03:00:00 19.4 5 Sur 11 Sudoeste 0.2 -- -- 94
2019-09-23 02:00:00 19.4 7 Sudoeste 12 Sudoeste 0 -- -- 93
2019-09-23 01:00:00 19.5 3 Sudeste 12 Este 0.2 -- -- 94
2019-09-23 00:00:00 19.6 5 Este 14 Nordeste 0.4 -- -- 96
2019-09-22 23:00:00 20 10 Nordeste 18 Nordeste 3.6 -- -- 98
2019-09-22 22:00:00 20.2 8 Este 21 Este 1 -- -- 98
2019-09-22 21:00:00 20.3 9 Nordeste 18 Norte 5.2 -- -- 98
2019-09-22 20:00:00 20.2 13 Nordeste 22 Norte 2.2 -- -- 98
2019-09-22 19:00:00 20.8 8 Nordeste 17 Nordeste 1.4 -- -- 96
2019-09-22 18:00:00 21.4 6 Nordeste 14 Este 1 -- -- 95
2019-09-22 17:00:00 21.9 7 Este 18 Este 0 -- -- 88
2019-09-22 16:00:00 22.2 8 Nordeste 18 Este 0 -- -- 92
2019-09-22 15:00:00 22.3 9 Nordeste 18 Nordeste 0 -- -- 88
2019-09-22 14:00:00 24.3 10 Nordeste 18 Nordeste 0 -- -- 75
2019-09-22 13:00:00 24.1 10 Nordeste 17 Nordeste 0 -- -- 79
2019-09-22 12:00:00 23.6 11 Nordeste 17 Nordeste 0 -- -- 85
2019-09-22 11:00:00 22.9 6 Oeste 14 Sudoeste 0.2 -- -- 87
2019-09-22 10:00:00 20.7 7 Oeste 12 Sudoeste 0.2 -- -- 93
2019-09-22 09:00:00 20.5 4 Oeste 12 Sudoeste 0.2 -- -- 93
2019-09-22 08:00:00 20.1 4 Este 15 Nordeste 1.2 -- -- 96
2019-09-22 07:00:00 20.4 5 Oeste 9 Oeste 0.4 -- -- 95
2019-09-22 06:00:00 20.4 6 Sudoeste 12 Sudoeste 0.2 -- -- 92
2019-09-22 05:00:00 20.8 3 Nordeste 7 Nordeste 0 -- -- 87
2019-09-22 04:00:00 20.9 2 Norte 8 Norte 0 -- -- 84
2019-09-22 03:00:00 20.8 2 Noroeste 6 Norte 0 -- -- 83
2019-09-22 02:00:00 20.9 0 Calma 6 Norte 0 -- -- 81
2019-09-22 01:00:00 21 4 Noroeste 11 Oeste 0 -- -- 74
2019-09-22 00:00:00 20.3 5 Sudoeste 13 Oeste 0 -- -- 74
2019-09-21 23:00:00 19.8 3 Sudoeste 12 Sudoeste 0 -- -- 79
2019-09-21 22:00:00 20.1 9 Sudoeste 13 Sudoeste 0 -- -- 79
2019-09-21 21:00:00 20.7 7 Sudoeste 10 Sudoeste 0 -- -- 79
2019-09-21 20:00:00 22 8 Sudoeste 18 Norte 0 -- -- 76
2019-09-21 19:00:00 24.3 5 Oeste 15 Nordeste 0 -- -- 67
2019-09-21 18:00:00 25.5 6 Sudeste 16 Sudeste 0 -- -- 63
2019-09-21 17:00:00 25.9 6 Este 18 Sur 0 -- -- 60
2019-09-21 16:00:00 25.4 9 Sudeste 20 Sudeste 0 -- -- 60
2019-09-21 15:00:00 25.5 11 Sudeste 23 Sudeste 0 -- -- 58
2019-09-21 14:00:00 27.6 9 Este 23 Este 0 -- -- 55
2019-09-21 13:00:00 27.9 12 Este 24 Este 0 -- -- 55
2019-09-21 12:00:00 26.7 12 Este 19 Este 0 -- -- 57
2019-09-21 11:00:00 24.4 8 Este 15 Este 0 -- -- 65
2019-09-21 10:00:00 22.8 8 Nordeste 12 Norte 0 -- -- 70
2019-09-21 09:00:00 19.8 8 Sudoeste 14 Sudoeste 0 -- -- 70
2019-09-21 08:00:00 18.1 8 Sudoeste 14 Sudoeste 0 -- -- 76
2019-09-21 07:00:00 18.1 9 Sudoeste 13 Sudoeste 0 -- -- 69
2019-09-21 06:00:00 18.5 5 Sudoeste 19 Sudoeste 0 -- -- 74
2019-09-21 05:00:00 19.1 12 Sudoeste 17 Sudoeste 0 -- -- 72
2019-09-21 04:00:00 18.9 12 Sudoeste 19 Sudoeste 0 -- -- 69
2019-09-21 03:00:00 19.1 9 Sudoeste 15 Sudoeste 0 -- -- 69
2019-09-21 02:00:00 19.1 9 Sudoeste 17 Sudoeste 0 -- -- 68
2019-09-21 01:00:00 19 8 Sudoeste 16 Sudoeste 0 -- -- 73
2019-09-21 00:00:00 19.3 9 Sudoeste 14 Sudoeste 0 -- -- 71
2019-09-20 23:00:00 19.6 9 Sudoeste 15 Sudoeste 0 -- -- 72
2019-09-20 22:00:00 19.7 10 Sudoeste 15 Sudoeste 0 -- -- 76
2019-09-20 21:00:00 19.4 8 Sudoeste 10 Sudoeste 0 -- -- 88
2019-09-20 20:00:00 20.6 0 Calma 9 Este 0 -- -- 83
2019-09-20 19:00:00 21.9 5 Nordeste 15 Norte 0 -- -- 77
2019-09-20 18:00:00 22.6 8 Norte 15 Nordeste 0 -- -- 74
2019-09-20 17:00:00 22.4 8 Nordeste 16 Norte 0 -- -- 77
2019-09-20 16:00:00 24.3 10 Nordeste 18 Nordeste 0 -- -- 68
2019-09-20 15:00:00 23.7 7 Nordeste 17 Nordeste 0 -- -- 67
2019-09-20 14:00:00 25.2 10 Nordeste 16 Nordeste 0 -- -- 58
2019-09-20 13:00:00 26.2 10 Nordeste 17 Este 0 -- -- 56
2019-09-20 12:00:00 26.2 10 Nordeste 15 Este 0 -- -- 55
2019-09-20 11:00:00 24.7 9 Nordeste 16 Nordeste 0 -- -- 56
2019-09-20 10:00:00 23.3 8 Nordeste 13 Nordeste 0 -- -- 67
2019-09-20 09:00:00 21.1 3 Norte 17 Sudoeste 0 -- -- 66
2019-09-20 08:00:00 19.4 12 Sudoeste 18 Sudoeste 0 -- -- 70
2019-09-20 07:00:00 19.3 10 Sudoeste 17 Oeste 0 -- -- 72
2019-09-20 06:00:00 17.4 6 Sudoeste 9 Oeste 0 -- -- 82
2019-09-20 05:00:00 17.7 4 Oeste 9 Noroeste 0 -- -- 83
2019-09-20 04:00:00 18.2 5 Oeste 9 Sudoeste 0 -- -- 82
2019-09-20 03:00:00 18.4 4 Sudoeste 12 Oeste 0 -- -- 82
2019-09-20 02:00:00 18.7 7 Oeste 13 Sudoeste 0 -- -- 81
2019-09-20 01:00:00 19 8 Sudoeste 15 Sudoeste 0 -- -- 80
2019-09-20 00:00:00 19 7 Oeste 13 Sudoeste 0 -- -- 83
2019-09-19 23:00:00 19.4 8 Oeste 15 Sudoeste 0 -- -- 83
2019-09-19 22:00:00 18.8 8 Sudoeste 14 Sudoeste 0 -- -- 81
2019-09-19 21:00:00 19.1 9 Sudoeste 15 Oeste 0 -- -- 79
2019-09-19 20:00:00 19.7 3 Sudoeste 9 Norte 0 -- -- 83
2019-09-19 19:00:00 21.4 6 Nordeste 13 Nordeste 0 -- -- 77
2019-09-19 18:00:00 21.8 8 Nordeste 19 Nordeste 0 -- -- 75
2019-09-19 17:00:00 22.8 8 Este 17 Este 0 -- -- 68
2019-09-19 16:00:00 23.1 11 Nordeste 18 Este 0 -- -- 70
2019-09-19 15:00:00 24.7 9 Este 19 Este 0 -- -- 66
2019-09-19 14:00:00 24.7 13 Nordeste 22 Este 0 -- -- 64
2019-09-19 13:00:00 24.5 12 Nordeste 21 Nordeste 0 -- -- 68
2019-09-19 12:00:00 22.1 10 Nordeste 22 Este 0 -- -- 74
2019-09-19 11:00:00 23.2 12 Este 18 Nordeste 0 -- -- 72
2019-09-19 10:00:00 20.6 9 Nordeste 16 Este 0 -- -- 82
2019-09-19 09:00:00 18.5 9 Sudoeste 13 Sudoeste 0 -- -- 77
2019-09-19 08:00:00 17.9 9 Sudoeste 12 Sudoeste 0 -- -- 85
2019-09-19 07:00:00 17.6 10 Sudoeste 13 Sudoeste 0 -- -- 85
2019-09-19 06:00:00 18.3 6 Sudoeste 13 Sudoeste 0 -- -- 83
2019-09-19 05:00:00 18.9 4 Sudeste 14 Sudoeste 0 -- -- 86
2019-09-19 04:00:00 18.5 6 Sudoeste 10 Sudoeste 0 -- -- 83
2019-09-19 03:00:00 18.8 6 Sudoeste 12 Oeste 0 -- -- 80
2019-09-19 02:00:00 18.8 5 Sudoeste 15 Sudoeste 0 -- -- 80
2019-09-19 01:00:00 18.9 8 Sudoeste 14 Sudoeste 0 -- -- 82
2019-09-19 00:00:00 18.2 7 Oeste 12 Sudoeste 0 -- -- 81
2019-09-18 23:00:00 18.4 7 Oeste 12 Oeste 0 -- -- 80
2019-09-18 22:00:00 18.4 6 Oeste 13 Oeste 0 -- -- 78
2019-09-18 21:00:00 18.3 6 Sudoeste 9 Sudoeste 0 -- -- 81
2019-09-18 20:00:00 19.6 4 Sudoeste 8 Sudoeste 0 -- -- 76
2019-09-18 19:00:00 21.8 7 Este 17 Este 0 -- -- 70
2019-09-18 18:00:00 22.4 9 Este 20 Este 0 -- -- 67
2019-09-18 17:00:00 22.6 11 Este 22 Este 0 -- -- 66
2019-09-18 16:00:00 25 12 Este 23 Este 0 -- -- 60
2019-09-18 15:00:00 23.7 14 Este 23 Este 0 -- -- 63
2019-09-18 14:00:00 22.9 12 Este 21 Este 0 -- -- 68
2019-09-18 13:00:00 22.5 15 Este 23 Este 0 -- -- 73
2019-09-18 12:00:00 22.3 12 Este 22 Este 0 -- -- 71
2019-09-18 11:00:00 21 9 Sudeste 19 Este 0 -- -- 73
2019-09-18 10:00:00 19.8 9 Sur 14 Sur 0 -- -- 77
2019-09-18 09:00:00 19.4 6 Sur 14 Oeste 0 -- -- 78
2019-09-18 08:00:00 19.1 5 Sudeste 17 Sudoeste 0 -- -- 82
2019-09-18 07:00:00 18.8 13 Sudoeste 19 Sudoeste 0 -- -- 77
2019-09-18 06:00:00 18.4 9 Sudoeste 13 Sudoeste 0 -- -- 81
2019-09-18 05:00:00 18.4 7 Sudoeste 13 Sudoeste 0 -- -- 83
2019-09-18 04:00:00 18.8 4 Sudoeste 15 Sudoeste 0 -- -- 80
2019-09-18 03:00:00 18.8 11 Sudoeste 15 Sudoeste 0 -- -- 79
2019-09-18 02:00:00 18.9 4 Sur 17 Sudoeste 0 -- -- 81
2019-09-18 01:00:00 18.8 12 Sudoeste 18 Sudoeste 0 -- -- 79
2019-09-18 00:00:00 18.9 11 Sudoeste 15 Sudoeste 0 -- -- 81
2019-09-17 23:00:00 19.1 6 Sudoeste 13 Sudoeste 0 -- -- 82
2019-09-17 22:00:00 19.3 8 Sudoeste 14 Sudoeste 0 -- -- 80
2019-09-17 21:00:00 19.6 6 Sur 14 Sudeste 0 -- -- 82
2019-09-17 20:00:00 20 6 Este 15 Este 0 -- -- 80
2019-09-15 17:00:00 -- -- -- -- -- -- -- -- --
2019-09-15 16:00:00 24.6 10 Este 26 Este 0 -- -- 66
2019-09-15 15:00:00 25 15 Este 27 Este 0 -- -- 66
2019-09-15 14:00:00 25.6 15 Este 24 Nordeste 0 -- -- 64
2019-09-15 13:00:00 25.3 14 Este 24 Este 0 -- -- 63
2019-09-15 12:00:00 24.1 10 Este 23 Este 0 -- -- 65
2019-09-15 11:00:00 23 10 Este 21 Este 0 -- -- 72
2019-09-15 10:00:00 21.8 10 Este 17 Este 0 -- -- 76
2019-09-15 09:00:00 19.9 5 Sur 17 Sur 0 -- -- 83
2019-09-15 08:00:00 18.5 12 Sudoeste 17 Sudoeste 0 -- -- 86
2019-09-15 07:00:00 18 10 Sudoeste 16 Sudoeste 0 -- -- 78
2019-09-15 06:00:00 18.7 12 Sudoeste 26 Sudoeste 0 -- -- 81
2019-09-15 05:00:00 18.7 13 Sudoeste 22 Sudoeste 0 -- -- 82
2019-09-15 04:00:00 18.9 12 Sudoeste 21 Sudoeste 0 -- -- 81
2019-09-15 03:00:00 18.7 7 Sudoeste 14 Sudeste 0 -- -- 76
2019-09-15 02:00:00 19.6 10 Sudoeste 17 Sudoeste 0 -- -- 55
2019-09-15 01:00:00 19.3 12 Sudoeste 18 Sudoeste 0 -- -- 56
2019-09-15 00:00:00 18.2 10 Sudoeste 17 Sudoeste 0 -- -- 68